Camp Pendleton MCAS (Munn Field) Airport
KNFG : rendu visible

Aérodrome :











RETROUVEZ-NOUS SUR...

 
LOGIN :

S'inscrire | Disclaimer

   EN    FR    IT 

 









Légende :    VFR   VFR Marginal   IFR   IFR Intensif   IFR Très Intensif
Visi : 
Plafond : 
>= 8 km
>= 3000ft
5 à 8 km
1000 à 3000 ft
1500m à 5 km
500 à 1000 ft
800 à 1500m
200 à 500 ft
< 800m
< 200 ft
Symboles :   Orages  Brouillard  Fortes neiges  Fortes précipitations  Vent > 20 kt






- Altitude de l'aérodrome : 78 ft


KNFG - Camp Pendleton MCAS (Munn Field)

DERNIER METAR :
  • 201155Z AUTO 25008G17KT 7SM -RA FEW023 BKN045 OVC050 14/11 A2959 RMK AO2 RAB39 SLP018 P0000 60001 70003 T01390106 10167 20139 51005 $

METARs EXPIRÉS :
  • 201055Z AUTO 22008KT 10SM FEW026 OVC043 15/10 A2958 RMK AO2 RAB08E21 SLP017 P0000 T01500100 $
  • 201024Z AUTO 21008KT 10SM FEW024 BKN034 OVC043 16/11 A2959 RMK AO2 RAB08E21 P0000 T01560111 $
  • 201016Z AUTO 21011G19KT 10SM -RA SCT024 BKN028 OVC042 16/11 A2959 RMK AO2 RAB08 P0000 T01560111 $
  • 201005Z AUTO 21012KT 10SM SCT022 BKN032 OVC042 16/11 A2959 RMK AO2 T01560111 $

TAF TAF KNFG
Valide du 20 à 09h jusqu'au 21 à 09h UTC


2009/2109 VRB05KT 8000 BR -SHRA FEW009 BKN012 QNH2956INS
FM201000 22012KT 8000 BR -SHRA OVC020 QNH2957INS T12/2014Z T16/2021Z



MET'MAP, la Météo Aéronautique d'un coup d'oeil ! - Copyright ORBIFLY Décembre 2007 - Disclaimer

ORBIFLY MET'MAP TEAM :

Programmation & Développement : Alexandra Zaïnal
Conception & Développement : Baudouin d'Aumeries
Co-Programmation & Développement : Marc-Olivier Méhu
Soutien technique & logistique : Manuel Goepfert

Contact : metmap@orbifly.com




SOURCES & CREDITS :

   NOAA       Earth
Advisory